< < Back
Terminal Aerodrome Forecast


Current Version              Previous Versions:   1  2  3  4  5  6  7  8  9  

Terminal Aerodrome Forecast

894
FTUS42 KFFC 241721
TAFPDK
TAF
KPDK 241721Z 2418/2518 21004KT P6SM VCSH SCT050
      TEMPO 2418/2421 VRB15G25KT 5SM -TSRA BKN035CB
     FM250200 00000KT P6SM SCT250
     FM251500 24003KT P6SM SCT035=

Latest METAR

611
SAUS70 KWBC 242000 RRH
MTRPDK
METAR KPDK 241953Z 00000KT 10SM SCT060 SCT075 BKN090 33/20 A3002 RMK AO2
LTG DSNT NW SLP145 T03330200


USA.gov is the U.S. government's official web portal to all federal, state and local government web resources and services.